Denver City, Texas
Current Conditions -  °F | °C
As of 8:35 PM on Friday 24 Oct 2014 (Local Time) from KGNC Reporting Station
Clear Clear  
Wind Chill: 67°   Ceiling: Unl
Heat Index: 67°   Visibility: 10mi
Dew Point: 52°   Wind: 6mph
Humidity: 58%   Direction: 180°S
Pressure: 30.17"   Gusts: NA
Location:  32.96°N, 102.82°W
Report Text: KGNC 250135Z AUTO 18005KT 10SM CLR 20/11 A3017 RMK AO2 T01950111
Loading
Personal Weather Stations






























Interactive Weather Map
Tropical Storm Tracking
New forecast layout! Learn more

10-Day Weather Forecast

Advertisements
Track Severe Weather on mobile